Barter Island LRRS Airport Barter Island Lrrs US
ICAO: PABA
IATA:
Category: Medium
Scheduled Services:

Elevation: 2 ft
TransAlt. 18000 ft.

Airport Communications:
AWOS 3:30.8
ANCHORAGE CNTR:120.6
CTAF:126.2
DEADHORSE RDO:122
RDO:126.2

PABA Zoom In..

Runways:

(A) RW 07 length 4818 ft width 100 ft
---- / hdg 66

(B) RW 25 length 4818 ft width 100 ft
---- / hdg 246

Location; PABA
Day. 19 / Time. 02.52 Zulu
* Altimeter: 29.84
* Temperature: 13° c. 55.4°f.
* Wind from: 240° Speed 06 kn.
Dewpoint: 09° c.
Visibility: 10 Statute Miles.
Clouds: Overcast 7000 ft.

PABA 190252Z AUTO 24006KT 10SM OVC070 13/09 A2984 RMK AO2 SLP089 60000 T01280089 53006 TSNO


Wind From 240°
Speed 06 kn.

 
 
jpsmedia.com for Web Design worldairports.se 2018   terms of use